Terminal Aerodrome Forecast
Issued by NWS

Home | Current Version | Previous Version | Graphics & Text | Print | Product List | Glossary On
Versions: 1 2 3 4 5 6 7 8 9 10 11 12 13 14 15 16 17 18
000
FTUS43 KGRB 281300 AAB
TAFAUW
TAF AMD
KAUW 281336Z 2814/2912 14005KT 5SM -SN BR SCT025 OVC050
      TEMPO 2814/2818 1SM -SN BKN020
     FM281800 15007KT 3SM -SN BR BKN020 OVC040
     FM282000 13006KT 5SM BR OVC015
     FM282300 12005KT 3SM -FZDZPL BR OVC010
     FM290300 14004KT 3SM -FZDZ BR OVC006=

USA.gov is the U.S. government's official web portal to all federal, state and local government web resources and services.